sensor_id;sensor_type;location;lat;lon;timestamp;P1;durP1;ratioP1;P2;durP2;ratioP2
1993;SDS011;998;49.906;10.908;2022-12-13T00:01:54;20.17;;;9.43;;
1993;SDS011;998;49.906;10.908;2022-12-13T00:04:22;14.93;;;10.32;;
1993;SDS011;998;49.906;10.908;2022-12-13T00:06:52;15.65;;;10.02;;
1993;SDS011;998;49.906;10.908;2022-12-13T00:09:19;23.23;;;11.00;;
1993;SDS011;998;49.906;10.908;2022-12-13T00:11:47;21.17;;;9.02;;
1993;SDS011;998;49.906;10.908;2022-12-13T00:14:15;17.35;;;10.95;;
1993;SDS011;998;49.906;10.908;2022-12-13T00:16:45;23.17;;;10.10;;
1993;SDS011;998;49.906;10.908;2022-12-13T00:19:13;24.17;;;9.45;;
1993;SDS011;998;49.906;10.908;2022-12-13T00:21:41;20.35;;;9.65;;
1993;SDS011;998;49.906;10.908;2022-12-13T00:24:08;19.45;;;10.82;;
1993;SDS011;998;49.906;10.908;2022-12-13T00:26:35;22.00;;;10.10;;
1993;SDS011;998;49.906;10.908;2022-12-13T00:29:03;27.90;;;11.95;;
1993;SDS011;998;49.906;10.908;2022-12-13T00:31:32;19.55;;;10.43;;
1993;SDS011;998;49.906;10.908;2022-12-13T00:34:02;19.02;;;10.32;;
1993;SDS011;998;49.906;10.908;2022-12-13T00:36:29;17.85;;;9.75;;
1993;SDS011;998;49.906;10.908;2022-12-13T00:38:56;18.48;;;9.15;;
1993;SDS011;998;49.906;10.908;2022-12-13T00:41:27;16.40;;;9.48;;
1993;SDS011;998;49.906;10.908;2022-12-13T00:43:56;22.02;;;9.98;;
1993;SDS011;998;49.906;10.908;2022-12-13T00:46:24;15.70;;;9.80;;
1993;SDS011;998;49.906;10.908;2022-12-13T00:48:52;22.27;;;10.45;;
1993;SDS011;998;49.906;10.908;2022-12-13T00:51:24;17.13;;;10.75;;
1993;SDS011;998;49.906;10.908;2022-12-13T00:53:52;27.83;;;11.02;;
1993;SDS011;998;49.906;10.908;2022-12-13T00:56:21;16.77;;;10.07;;
1993;SDS011;998;49.906;10.908;2022-12-13T00:58:50;16.58;;;10.23;;
1993;SDS011;998;49.906;10.908;2022-12-13T01:01:21;15.73;;;9.68;;
1993;SDS011;998;49.906;10.908;2022-12-13T01:03:49;15.10;;;8.73;;
1993;SDS011;998;49.906;10.908;2022-12-13T01:06:19;22.95;;;9.75;;
1993;SDS011;998;49.906;10.908;2022-12-13T01:08:49;14.50;;;8.32;;
1993;SDS011;998;49.906;10.908;2022-12-13T01:11:17;19.40;;;9.20;;
1993;SDS011;998;49.906;10.908;2022-12-13T01:13:44;22.35;;;10.82;;
1993;SDS011;998;49.906;10.908;2022-12-13T01:16:12;21.65;;;9.25;;
1993;SDS011;998;49.906;10.908;2022-12-13T01:18:39;13.07;;;8.70;;
1993;SDS011;998;49.906;10.908;2022-12-13T01:21:09;17.20;;;9.85;;
1993;SDS011;998;49.906;10.908;2022-12-13T01:23:38;23.58;;;10.50;;
1993;SDS011;998;49.906;10.908;2022-12-13T01:26:07;22.67;;;10.10;;
1993;SDS011;998;49.906;10.908;2022-12-13T01:28:36;18.20;;;10.55;;
1993;SDS011;998;49.906;10.908;2022-12-13T01:31:05;19.98;;;9.55;;
1993;SDS011;998;49.906;10.908;2022-12-13T01:33:34;19.63;;;11.43;;
1993;SDS011;998;49.906;10.908;2022-12-13T01:36:03;16.38;;;9.63;;
1993;SDS011;998;49.906;10.908;2022-12-13T01:38:32;17.75;;;9.70;;
1993;SDS011;998;49.906;10.908;2022-12-13T01:41:01;19.70;;;10.65;;
1993;SDS011;998;49.906;10.908;2022-12-13T01:46:20;19.83;;;10.13;;
1993;SDS011;998;49.906;10.908;2022-12-13T01:48:48;30.30;;;9.77;;
1993;SDS011;998;49.906;10.908;2022-12-13T01:51:22;25.30;;;11.02;;
1993;SDS011;998;49.906;10.908;2022-12-13T01:53:54;18.65;;;10.27;;
1993;SDS011;998;49.906;10.908;2022-12-13T01:56:28;16.58;;;9.10;;
1993;SDS011;998;49.906;10.908;2022-12-13T01:59:00;18.95;;;9.20;;
1993;SDS011;998;49.906;10.908;2022-12-13T02:01:31;14.20;;;8.20;;
1993;SDS011;998;49.906;10.908;2022-12-13T02:03:58;18.55;;;8.50;;
1993;SDS011;998;49.906;10.908;2022-12-13T02:06:27;13.13;;;6.60;;
1993;SDS011;998;49.906;10.908;2022-12-13T02:08:59;10.38;;;6.95;;
1993;SDS011;998;49.906;10.908;2022-12-13T02:11:27;15.68;;;7.53;;
1993;SDS011;998;49.906;10.908;2022-12-13T02:13:55;15.63;;;7.82;;
1993;SDS011;998;49.906;10.908;2022-12-13T02:16:29;17.63;;;8.75;;
1993;SDS011;998;49.906;10.908;2022-12-13T02:22:32;12.48;;;7.28;;
1993;SDS011;998;49.906;10.908;2022-12-13T02:25:19;14.73;;;8.18;;
1993;SDS011;998;49.906;10.908;2022-12-13T02:28:09;16.02;;;7.85;;
1993;SDS011;998;49.906;10.908;2022-12-13T02:30:50;13.07;;;7.22;;
1993;SDS011;998;49.906;10.908;2022-12-13T02:33:21;17.33;;;10.45;;
1993;SDS011;998;49.906;10.908;2022-12-13T02:36:03;13.13;;;6.35;;
1993;SDS011;998;49.906;10.908;2022-12-13T02:38:35;12.80;;;7.78;;
1993;SDS011;998;49.906;10.908;2022-12-13T02:41:13;21.80;;;7.28;;
1993;SDS011;998;49.906;10.908;2022-12-13T02:43:44;14.20;;;7.10;;
1993;SDS011;998;49.906;10.908;2022-12-13T02:46:17;17.95;;;8.02;;
1993;SDS011;998;49.906;10.908;2022-12-13T02:48:48;14.75;;;8.25;;
1993;SDS011;998;49.906;10.908;2022-12-13T02:51:19;11.13;;;6.22;;
1993;SDS011;998;49.906;10.908;2022-12-13T02:53:48;11.40;;;6.18;;
1993;SDS011;998;49.906;10.908;2022-12-13T02:56:16;17.58;;;9.32;;
1993;SDS011;998;49.906;10.908;2022-12-13T02:58:44;11.38;;;7.53;;
1993;SDS011;998;49.906;10.908;2022-12-13T03:01:20;16.98;;;9.32;;
1993;SDS011;998;49.906;10.908;2022-12-13T03:04:05;13.98;;;6.95;;
1993;SDS011;998;49.906;10.908;2022-12-13T03:06:50;16.02;;;9.65;;
1993;SDS011;998;49.906;10.908;2022-12-13T03:09:25;13.55;;;8.25;;
1993;SDS011;998;49.906;10.908;2022-12-13T03:12:08;19.23;;;8.00;;
1993;SDS011;998;49.906;10.908;2022-12-13T03:14:59;20.92;;;7.90;;
1993;SDS011;998;49.906;10.908;2022-12-13T03:17:36;11.25;;;7.47;;
1993;SDS011;998;49.906;10.908;2022-12-13T03:20:08;13.05;;;9.15;;
1993;SDS011;998;49.906;10.908;2022-12-13T03:22:40;13.18;;;7.50;;
1993;SDS011;998;49.906;10.908;2022-12-13T03:25:07;15.13;;;9.20;;
1993;SDS011;998;49.906;10.908;2022-12-13T03:27:35;17.40;;;8.80;;
1993;SDS011;998;49.906;10.908;2022-12-13T03:30:03;17.55;;;8.65;;
1993;SDS011;998;49.906;10.908;2022-12-13T03:32:31;13.18;;;6.93;;
1993;SDS011;998;49.906;10.908;2022-12-13T03:35:00;14.23;;;8.23;;
1993;SDS011;998;49.906;10.908;2022-12-13T03:37:27;16.73;;;9.07;;
1993;SDS011;998;49.906;10.908;2022-12-13T03:39:54;11.52;;;7.55;;
1993;SDS011;998;49.906;10.908;2022-12-13T03:42:23;18.33;;;9.60;;
1993;SDS011;998;49.906;10.908;2022-12-13T03:44:50;10.98;;;6.93;;
1993;SDS011;998;49.906;10.908;2022-12-13T03:47:17;12.80;;;7.57;;
1993;SDS011;998;49.906;10.908;2022-12-13T03:49:45;13.00;;;7.70;;
1993;SDS011;998;49.906;10.908;2022-12-13T03:52:13;18.25;;;9.20;;
1993;SDS011;998;49.906;10.908;2022-12-13T03:54:41;18.02;;;9.25;;
1993;SDS011;998;49.906;10.908;2022-12-13T03:57:08;14.15;;;8.15;;
1993;SDS011;998;49.906;10.908;2022-12-13T03:59:36;11.50;;;5.63;;
1993;SDS011;998;49.906;10.908;2022-12-13T04:02:03;21.58;;;7.40;;
1993;SDS011;998;49.906;10.908;2022-12-13T04:04:30;15.82;;;7.78;;
1993;SDS011;998;49.906;10.908;2022-12-13T04:06:58;16.75;;;7.45;;
1993;SDS011;998;49.906;10.908;2022-12-13T04:09:26;13.63;;;7.85;;
1993;SDS011;998;49.906;10.908;2022-12-13T04:11:54;12.85;;;8.95;;
1993;SDS011;998;49.906;10.908;2022-12-13T04:14:39;14.30;;;8.55;;
1993;SDS011;998;49.906;10.908;2022-12-13T04:17:06;16.90;;;8.10;;
1993;SDS011;998;49.906;10.908;2022-12-13T04:19:33;8.75;;;5.95;;
1993;SDS011;998;49.906;10.908;2022-12-13T04:22:01;20.02;;;6.85;;
1993;SDS011;998;49.906;10.908;2022-12-13T04:24:29;10.48;;;6.30;;
1993;SDS011;998;49.906;10.908;2022-12-13T04:26:57;14.02;;;7.50;;
1993;SDS011;998;49.906;10.908;2022-12-13T04:29:24;14.07;;;8.48;;
1993;SDS011;998;49.906;10.908;2022-12-13T04:31:51;15.88;;;8.10;;
1993;SDS011;998;49.906;10.908;2022-12-13T04:34:19;16.52;;;6.55;;
1993;SDS011;998;49.906;10.908;2022-12-13T04:36:46;10.35;;;6.45;;
1993;SDS011;998;49.906;10.908;2022-12-13T04:39:14;10.82;;;6.32;;
1993;SDS011;998;49.906;10.908;2022-12-13T04:41:43;8.38;;;5.28;;
1993;SDS011;998;49.906;10.908;2022-12-13T04:44:10;14.38;;;8.70;;
1993;SDS011;998;49.906;10.908;2022-12-13T04:46:37;18.75;;;7.60;;
1993;SDS011;998;49.906;10.908;2022-12-13T04:49:05;14.93;;;6.65;;
1993;SDS011;998;49.906;10.908;2022-12-13T04:51:32;20.80;;;9.45;;
1993;SDS011;998;49.906;10.908;2022-12-13T04:54:00;16.85;;;10.52;;
1993;SDS011;998;49.906;10.908;2022-12-13T04:56:27;8.30;;;5.82;;
1993;SDS011;998;49.906;10.908;2022-12-13T04:58:56;12.63;;;7.43;;
1993;SDS011;998;49.906;10.908;2022-12-13T05:01:23;20.77;;;6.53;;
1993;SDS011;998;49.906;10.908;2022-12-13T05:03:51;13.43;;;6.35;;
1993;SDS011;998;49.906;10.908;2022-12-13T05:06:18;18.77;;;7.43;;
1993;SDS011;998;49.906;10.908;2022-12-13T05:08:45;13.25;;;6.32;;
1993;SDS011;998;49.906;10.908;2022-12-13T05:11:13;13.63;;;9.25;;
1993;SDS011;998;49.906;10.908;2022-12-13T05:13:40;16.98;;;8.05;;
1993;SDS011;998;49.906;10.908;2022-12-13T05:16:09;12.23;;;7.03;;
1993;SDS011;998;49.906;10.908;2022-12-13T05:18:37;11.48;;;7.78;;
1993;SDS011;998;49.906;10.908;2022-12-13T05:21:05;11.85;;;6.80;;
1993;SDS011;998;49.906;10.908;2022-12-13T05:23:34;17.45;;;8.05;;
1993;SDS011;998;49.906;10.908;2022-12-13T05:26:02;18.10;;;7.82;;
1993;SDS011;998;49.906;10.908;2022-12-13T05:28:30;13.30;;;7.28;;
1993;SDS011;998;49.906;10.908;2022-12-13T05:31:04;15.57;;;7.07;;
1993;SDS011;998;49.906;10.908;2022-12-13T05:33:35;15.77;;;6.68;;
1993;SDS011;998;49.906;10.908;2022-12-13T05:36:03;14.43;;;7.32;;
1993;SDS011;998;49.906;10.908;2022-12-13T05:38:31;16.75;;;9.00;;
1993;SDS011;998;49.906;10.908;2022-12-13T05:40:58;10.02;;;5.60;;
1993;SDS011;998;49.906;10.908;2022-12-13T05:43:26;10.98;;;5.70;;
1993;SDS011;998;49.906;10.908;2022-12-13T05:45:53;12.88;;;6.90;;
1993;SDS011;998;49.906;10.908;2022-12-13T05:48:21;14.18;;;9.13;;
1993;SDS011;998;49.906;10.908;2022-12-13T05:50:50;15.85;;;7.40;;
1993;SDS011;998;49.906;10.908;2022-12-13T05:53:17;12.40;;;7.70;;
1993;SDS011;998;49.906;10.908;2022-12-13T05:55:45;16.45;;;8.07;;
1993;SDS011;998;49.906;10.908;2022-12-13T05:58:12;15.23;;;7.65;;
1993;SDS011;998;49.906;10.908;2022-12-13T06:00:40;17.60;;;9.23;;
1993;SDS011;998;49.906;10.908;2022-12-13T06:03:08;14.10;;;7.47;;
1993;SDS011;998;49.906;10.908;2022-12-13T06:05:35;11.95;;;7.22;;
1993;SDS011;998;49.906;10.908;2022-12-13T06:08:04;17.35;;;7.65;;
1993;SDS011;998;49.906;10.908;2022-12-13T06:10:32;22.63;;;9.18;;
1993;SDS011;998;49.906;10.908;2022-12-13T06:12:59;10.55;;;6.82;;
1993;SDS011;998;49.906;10.908;2022-12-13T06:15:26;12.50;;;7.07;;
1993;SDS011;998;49.906;10.908;2022-12-13T06:17:54;11.60;;;6.60;;
1993;SDS011;998;49.906;10.908;2022-12-13T06:20:21;15.60;;;7.05;;
1993;SDS011;998;49.906;10.908;2022-12-13T06:22:49;17.98;;;6.03;;
1993;SDS011;998;49.906;10.908;2022-12-13T06:25:18;19.70;;;8.35;;
1993;SDS011;998;49.906;10.908;2022-12-13T06:27:45;13.00;;;6.93;;
1993;SDS011;998;49.906;10.908;2022-12-13T06:30:13;15.00;;;7.75;;
1993;SDS011;998;49.906;10.908;2022-12-13T06:32:40;18.05;;;8.82;;
1993;SDS011;998;49.906;10.908;2022-12-13T06:35:08;17.60;;;8.65;;
1993;SDS011;998;49.906;10.908;2022-12-13T06:37:35;10.25;;;6.28;;
1993;SDS011;998;49.906;10.908;2022-12-13T06:40:03;14.00;;;7.10;;
1993;SDS011;998;49.906;10.908;2022-12-13T06:42:32;15.90;;;7.28;;
1993;SDS011;998;49.906;10.908;2022-12-13T06:45:00;13.10;;;8.07;;
1993;SDS011;998;49.906;10.908;2022-12-13T06:47:27;16.00;;;7.22;;
1993;SDS011;998;49.906;10.908;2022-12-13T06:49:55;17.67;;;9.32;;
1993;SDS011;998;49.906;10.908;2022-12-13T06:52:23;11.38;;;8.30;;
1993;SDS011;998;49.906;10.908;2022-12-13T06:54:50;17.42;;;8.15;;
1993;SDS011;998;49.906;10.908;2022-12-13T06:57:18;25.98;;;9.05;;
1993;SDS011;998;49.906;10.908;2022-12-13T06:59:47;13.80;;;5.88;;
1993;SDS011;998;49.906;10.908;2022-12-13T07:02:14;11.43;;;7.55;;
1993;SDS011;998;49.906;10.908;2022-12-13T07:04:42;16.20;;;7.85;;
1993;SDS011;998;49.906;10.908;2022-12-13T07:07:09;11.45;;;6.18;;
1993;SDS011;998;49.906;10.908;2022-12-13T07:09:37;11.50;;;8.10;;
1993;SDS011;998;49.906;10.908;2022-12-13T07:12:04;15.18;;;8.50;;
1993;SDS011;998;49.906;10.908;2022-12-13T07:14:32;17.98;;;8.48;;
1993;SDS011;998;49.906;10.908;2022-12-13T07:17:00;16.63;;;7.78;;
1993;SDS011;998;49.906;10.908;2022-12-13T07:19:28;20.00;;;8.75;;
1993;SDS011;998;49.906;10.908;2022-12-13T07:21:56;13.00;;;8.10;;
1993;SDS011;998;49.906;10.908;2022-12-13T07:24:23;16.75;;;10.57;;
1993;SDS011;998;49.906;10.908;2022-12-13T07:26:50;23.13;;;6.68;;
1993;SDS011;998;49.906;10.908;2022-12-13T07:29:18;12.43;;;7.35;;
1993;SDS011;998;49.906;10.908;2022-12-13T07:31:45;11.32;;;6.97;;
1993;SDS011;998;49.906;10.908;2022-12-13T07:34:14;14.85;;;6.57;;
1993;SDS011;998;49.906;10.908;2022-12-13T07:36:42;11.10;;;7.47;;
1993;SDS011;998;49.906;10.908;2022-12-13T07:39:09;17.65;;;7.80;;
1993;SDS011;998;49.906;10.908;2022-12-13T07:41:36;17.42;;;7.50;;
1993;SDS011;998;49.906;10.908;2022-12-13T07:44:03;14.35;;;9.32;;
1993;SDS011;998;49.906;10.908;2022-12-13T07:46:31;15.00;;;7.53;;
1993;SDS011;998;49.906;10.908;2022-12-13T07:48:59;13.02;;;7.03;;
1993;SDS011;998;49.906;10.908;2022-12-13T07:51:28;11.30;;;6.90;;
1993;SDS011;998;49.906;10.908;2022-12-13T07:53:56;24.42;;;7.15;;
1993;SDS011;998;49.906;10.908;2022-12-13T07:56:23;18.10;;;7.65;;
1993;SDS011;998;49.906;10.908;2022-12-13T07:58:51;9.65;;;5.50;;
1993;SDS011;998;49.906;10.908;2022-12-13T08:01:18;11.45;;;9.32;;
1993;SDS011;998;49.906;10.908;2022-12-13T08:03:46;10.23;;;4.82;;
1993;SDS011;998;49.906;10.908;2022-12-13T08:06:14;12.73;;;6.05;;
1993;SDS011;998;49.906;10.908;2022-12-13T08:08:44;10.18;;;5.90;;
1993;SDS011;998;49.906;10.908;2022-12-13T08:11:14;8.85;;;6.70;;
1993;SDS011;998;49.906;10.908;2022-12-13T08:13:42;13.20;;;6.82;;
1993;SDS011;998;49.906;10.908;2022-12-13T08:16:10;10.27;;;6.70;;
1993;SDS011;998;49.906;10.908;2022-12-13T08:18:42;11.63;;;7.18;;
1993;SDS011;998;49.906;10.908;2022-12-13T08:21:11;8.98;;;5.53;;
1993;SDS011;998;49.906;10.908;2022-12-13T08:23:39;7.60;;;6.22;;
1993;SDS011;998;49.906;10.908;2022-12-13T08:26:09;10.48;;;9.10;;
1993;SDS011;998;49.906;10.908;2022-12-13T08:28:36;12.80;;;5.88;;
1993;SDS011;998;49.906;10.908;2022-12-13T08:31:03;11.32;;;7.68;;
1993;SDS011;998;49.906;10.908;2022-12-13T08:33:33;14.75;;;6.03;;
1993;SDS011;998;49.906;10.908;2022-12-13T08:36:07;20.67;;;7.50;;
1993;SDS011;998;49.906;10.908;2022-12-13T08:38:35;17.45;;;6.65;;
1993;SDS011;998;49.906;10.908;2022-12-13T08:41:03;6.82;;;3.83;;
1993;SDS011;998;49.906;10.908;2022-12-13T08:43:32;9.80;;;4.72;;
1993;SDS011;998;49.906;10.908;2022-12-13T08:45:59;9.90;;;5.85;;
1993;SDS011;998;49.906;10.908;2022-12-13T08:48:27;11.90;;;5.97;;
1993;SDS011;998;49.906;10.908;2022-12-13T08:50:58;11.88;;;5.65;;
1993;SDS011;998;49.906;10.908;2022-12-13T08:53:26;10.07;;;5.82;;
1993;SDS011;998;49.906;10.908;2022-12-13T08:55:53;14.32;;;6.35;;
1993;SDS011;998;49.906;10.908;2022-12-13T08:58:25;14.23;;;5.65;;
1993;SDS011;998;49.906;10.908;2022-12-13T09:00:53;15.18;;;7.13;;
1993;SDS011;998;49.906;10.908;2022-12-13T09:03:21;12.38;;;6.10;;
1993;SDS011;998;49.906;10.908;2022-12-13T09:05:48;12.05;;;8.02;;
1993;SDS011;998;49.906;10.908;2022-12-13T09:08:16;11.35;;;5.90;;
1993;SDS011;998;49.906;10.908;2022-12-13T09:10:43;11.38;;;7.93;;
1993;SDS011;998;49.906;10.908;2022-12-13T09:13:11;11.70;;;6.28;;
1993;SDS011;998;49.906;10.908;2022-12-13T09:15:38;27.13;;;8.32;;
1993;SDS011;998;49.906;10.908;2022-12-13T09:18:08;16.08;;;7.00;;
1993;SDS011;998;49.906;10.908;2022-12-13T09:20:36;25.67;;;7.40;;
1993;SDS011;998;49.906;10.908;2022-12-13T09:23:05;13.07;;;8.38;;
1993;SDS011;998;49.906;10.908;2022-12-13T09:25:33;20.23;;;7.80;;
1993;SDS011;998;49.906;10.908;2022-12-13T09:28:00;12.50;;;7.25;;
1993;SDS011;998;49.906;10.908;2022-12-13T09:30:28;16.75;;;9.50;;
1993;SDS011;998;49.906;10.908;2022-12-13T09:32:55;18.67;;;7.20;;
1993;SDS011;998;49.906;10.908;2022-12-13T09:35:24;12.10;;;7.55;;
1993;SDS011;998;49.906;10.908;2022-12-13T09:37:51;19.63;;;7.88;;
1993;SDS011;998;49.906;10.908;2022-12-13T09:40:21;17.63;;;7.80;;
1993;SDS011;998;49.906;10.908;2022-12-13T09:42:51;14.60;;;8.00;;
1993;SDS011;998;49.906;10.908;2022-12-13T09:45:21;13.30;;;7.78;;
1993;SDS011;998;49.906;10.908;2022-12-13T09:47:49;16.40;;;8.35;;
1993;SDS011;998;49.906;10.908;2022-12-13T09:50:19;17.95;;;6.43;;
1993;SDS011;998;49.906;10.908;2022-12-13T09:52:52;15.32;;;7.22;;
1993;SDS011;998;49.906;10.908;2022-12-13T09:55:21;12.43;;;7.07;;
1993;SDS011;998;49.906;10.908;2022-12-13T09:57:50;18.42;;;7.18;;
1993;SDS011;998;49.906;10.908;2022-12-13T10:00:20;17.50;;;6.47;;
1993;SDS011;998;49.906;10.908;2022-12-13T10:02:50;9.27;;;6.47;;
1993;SDS011;998;49.906;10.908;2022-12-13T10:05:25;19.70;;;9.25;;
1993;SDS011;998;49.906;10.908;2022-12-13T10:07:57;13.98;;;7.60;;
1993;SDS011;998;49.906;10.908;2022-12-13T10:10:29;13.93;;;7.38;;
1993;SDS011;998;49.906;10.908;2022-12-13T10:12:57;12.70;;;7.35;;
1993;SDS011;998;49.906;10.908;2022-12-13T10:15:32;14.55;;;7.88;;
1993;SDS011;998;49.906;10.908;2022-12-13T10:18:02;10.18;;;7.00;;
1993;SDS011;998;49.906;10.908;2022-12-13T10:20:32;27.15;;;10.07;;
1993;SDS011;998;49.906;10.908;2022-12-13T10:23:01;14.88;;;8.70;;
1993;SDS011;998;49.906;10.908;2022-12-13T10:25:42;20.52;;;9.30;;
1993;SDS011;998;49.906;10.908;2022-12-13T10:28:12;16.90;;;9.43;;
1993;SDS011;998;49.906;10.908;2022-12-13T10:30:43;24.70;;;9.73;;
1993;SDS011;998;49.906;10.908;2022-12-13T10:33:20;15.93;;;8.88;;
1993;SDS011;998;49.906;10.908;2022-12-13T10:36:03;17.27;;;9.10;;
1993;SDS011;998;49.906;10.908;2022-12-13T10:38:35;17.40;;;9.60;;
1993;SDS011;998;49.906;10.908;2022-12-13T10:44:08;16.70;;;10.35;;
1993;SDS011;998;49.906;10.908;2022-12-13T10:46:50;15.43;;;10.00;;
1993;SDS011;998;49.906;10.908;2022-12-13T10:49:39;15.27;;;9.50;;
1993;SDS011;998;49.906;10.908;2022-12-13T10:52:19;14.00;;;9.13;;
1993;SDS011;998;49.906;10.908;2022-12-13T10:54:48;19.20;;;10.53;;
1993;SDS011;998;49.906;10.908;2022-12-13T10:57:17;16.60;;;9.20;;
1993;SDS011;998;49.906;10.908;2022-12-13T10:59:45;20.70;;;10.80;;
1993;SDS011;998;49.906;10.908;2022-12-13T11:02:30;25.93;;;11.73;;
1993;SDS011;998;49.906;10.908;2022-12-13T11:04:59;19.50;;;9.47;;
1993;SDS011;998;49.906;10.908;2022-12-13T11:07:27;21.03;;;9.77;;
1993;SDS011;998;49.906;10.908;2022-12-13T11:09:56;15.40;;;9.40;;
1993;SDS011;998;49.906;10.908;2022-12-13T11:12:24;15.70;;;9.67;;
1993;SDS011;998;49.906;10.908;2022-12-13T11:14:53;14.70;;;10.03;;
1993;SDS011;998;49.906;10.908;2022-12-13T11:17:23;18.93;;;10.33;;
1993;SDS011;998;49.906;10.908;2022-12-13T11:19:52;15.57;;;9.33;;
1993;SDS011;998;49.906;10.908;2022-12-13T11:22:21;20.80;;;9.80;;
1993;SDS011;998;49.906;10.908;2022-12-13T11:24:50;18.23;;;9.70;;
1993;SDS011;998;49.906;10.908;2022-12-13T11:27:32;15.20;;;9.60;;
1993;SDS011;998;49.906;10.908;2022-12-13T11:30:08;17.93;;;10.13;;
1993;SDS011;998;49.906;10.908;2022-12-13T11:32:44;21.83;;;11.17;;
1993;SDS011;998;49.906;10.908;2022-12-13T11:35:14;17.43;;;11.60;;
1993;SDS011;998;49.906;10.908;2022-12-13T11:37:44;17.43;;;10.27;;
1993;SDS011;998;49.906;10.908;2022-12-13T11:40:13;16.43;;;10.00;;
1993;SDS011;998;49.906;10.908;2022-12-13T11:42:43;15.23;;;9.83;;
1993;SDS011;998;49.906;10.908;2022-12-13T11:45:14;17.73;;;9.77;;
1993;SDS011;998;49.906;10.908;2022-12-13T11:47:43;14.47;;;9.37;;
1993;SDS011;998;49.906;10.908;2022-12-13T11:50:14;14.43;;;10.30;;
1993;SDS011;998;49.906;10.908;2022-12-13T11:52:43;18.17;;;9.70;;
1993;SDS011;998;49.906;10.908;2022-12-13T11:55:14;19.00;;;10.00;;
1993;SDS011;998;49.906;10.908;2022-12-13T11:57:45;11.80;;;9.00;;
1993;SDS011;998;49.906;10.908;2022-12-13T12:03:03;14.93;;;9.53;;
1993;SDS011;998;49.906;10.908;2022-12-13T12:05:33;14.20;;;10.67;;
1993;SDS011;998;49.906;10.908;2022-12-13T12:08:04;16.57;;;8.50;;
1993;SDS011;998;49.906;10.908;2022-12-13T12:10:33;15.20;;;9.10;;
1993;SDS011;998;49.906;10.908;2022-12-13T12:13:04;13.10;;;7.93;;
1993;SDS011;998;49.906;10.908;2022-12-13T12:15:34;18.50;;;9.80;;
1993;SDS011;998;49.906;10.908;2022-12-13T12:18:03;13.40;;;9.50;;
1993;SDS011;998;49.906;10.908;2022-12-13T12:20:35;13.77;;;8.60;;
1993;SDS011;998;49.906;10.908;2022-12-13T12:23:07;17.20;;;9.83;;
1993;SDS011;998;49.906;10.908;2022-12-13T12:25:41;14.30;;;9.03;;
1993;SDS011;998;49.906;10.908;2022-12-13T12:28:15;16.10;;;10.07;;
1993;SDS011;998;49.906;10.908;2022-12-13T12:30:47;15.97;;;9.47;;
1993;SDS011;998;49.906;10.908;2022-12-13T12:33:20;16.43;;;8.33;;
1993;SDS011;998;49.906;10.908;2022-12-13T12:38:57;17.83;;;9.07;;
1993;SDS011;998;49.906;10.908;2022-12-13T12:41:31;12.70;;;8.23;;
1993;SDS011;998;49.906;10.908;2022-12-13T12:44:04;14.30;;;8.43;;
1993;SDS011;998;49.906;10.908;2022-12-13T12:46:42;11.30;;;7.50;;
1993;SDS011;998;49.906;10.908;2022-12-13T12:49:22;14.27;;;8.87;;
1993;SDS011;998;49.906;10.908;2022-12-13T12:51:56;14.83;;;8.40;;
1993;SDS011;998;49.906;10.908;2022-12-13T12:54:32;13.53;;;8.83;;
1993;SDS011;998;49.906;10.908;2022-12-13T12:57:04;14.00;;;8.50;;
1993;SDS011;998;49.906;10.908;2022-12-13T12:59:38;13.23;;;9.07;;
1993;SDS011;998;49.906;10.908;2022-12-13T13:02:12;12.33;;;7.50;;
1993;SDS011;998;49.906;10.908;2022-12-13T13:04:42;11.80;;;8.20;;
1993;SDS011;998;49.906;10.908;2022-12-13T13:07:12;15.13;;;8.80;;
1993;SDS011;998;49.906;10.908;2022-12-13T13:09:41;14.50;;;8.77;;
1993;SDS011;998;49.906;10.908;2022-12-13T13:12:09;9.90;;;7.67;;
1993;SDS011;998;49.906;10.908;2022-12-13T13:14:38;11.30;;;8.50;;
1993;SDS011;998;49.906;10.908;2022-12-13T13:19:51;14.73;;;8.70;;
1993;SDS011;998;49.906;10.908;2022-12-13T13:22:26;17.10;;;8.37;;
1993;SDS011;998;49.906;10.908;2022-12-13T13:25:00;14.17;;;9.00;;
1993;SDS011;998;49.906;10.908;2022-12-13T13:27:39;22.40;;;11.63;;
1993;SDS011;998;49.906;10.908;2022-12-13T13:30:15;12.23;;;8.17;;
1993;SDS011;998;49.906;10.908;2022-12-13T13:32:43;11.70;;;8.77;;
1993;SDS011;998;49.906;10.908;2022-12-13T13:37:57;14.30;;;7.97;;
1993;SDS011;998;49.906;10.908;2022-12-13T13:40:26;16.70;;;8.30;;
1993;SDS011;998;49.906;10.908;2022-12-13T13:43:02;17.37;;;8.77;;
1993;SDS011;998;49.906;10.908;2022-12-13T13:45:32;12.70;;;7.80;;
1993;SDS011;998;49.906;10.908;2022-12-13T13:48:22;14.70;;;8.00;;
1993;SDS011;998;49.906;10.908;2022-12-13T13:53:52;17.03;;;9.43;;
1993;SDS011;998;49.906;10.908;2022-12-13T13:56:33;14.80;;;8.20;;
1993;SDS011;998;49.906;10.908;2022-12-13T14:02:08;11.13;;;7.33;;
1993;SDS011;998;49.906;10.908;2022-12-13T14:04:46;14.10;;;7.23;;
1993;SDS011;998;49.906;10.908;2022-12-13T14:07:32;14.03;;;9.13;;
1993;SDS011;998;49.906;10.908;2022-12-13T14:10:29;12.20;;;7.70;;
1993;SDS011;998;49.906;10.908;2022-12-13T14:22:26;12.70;;;6.50;;
1993;SDS011;998;49.906;10.908;2022-12-13T14:28:06;14.53;;;6.70;;
1993;SDS011;998;49.906;10.908;2022-12-13T14:30:40;15.30;;;7.60;;
1993;SDS011;998;49.906;10.908;2022-12-13T14:33:11;16.83;;;9.33;;
1993;SDS011;998;49.906;10.908;2022-12-13T14:35:50;19.73;;;7.40;;
1993;SDS011;998;49.906;10.908;2022-12-13T14:38:20;13.77;;;6.83;;
1993;SDS011;998;49.906;10.908;2022-12-13T14:40:49;15.53;;;6.70;;
1993;SDS011;998;49.906;10.908;2022-12-13T14:43:21;12.90;;;6.60;;
1993;SDS011;998;49.906;10.908;2022-12-13T14:45:51;13.10;;;7.60;;
1993;SDS011;998;49.906;10.908;2022-12-13T14:48:20;12.43;;;7.10;;
1993;SDS011;998;49.906;10.908;2022-12-13T14:50:50;8.30;;;5.73;;
1993;SDS011;998;49.906;10.908;2022-12-13T14:53:22;12.17;;;6.53;;
1993;SDS011;998;49.906;10.908;2022-12-13T14:56:02;11.47;;;6.33;;
1993;SDS011;998;49.906;10.908;2022-12-13T14:58:31;10.53;;;5.83;;
1993;SDS011;998;49.906;10.908;2022-12-13T15:01:01;12.30;;;4.90;;
1993;SDS011;998;49.906;10.908;2022-12-13T15:03:29;12.07;;;6.20;;
1993;SDS011;998;49.906;10.908;2022-12-13T15:05:59;8.82;;;5.75;;
1993;SDS011;998;49.906;10.908;2022-12-13T15:08:28;8.85;;;5.45;;
1993;SDS011;998;49.906;10.908;2022-12-13T15:10:58;10.25;;;5.70;;
1993;SDS011;998;49.906;10.908;2022-12-13T15:13:27;9.40;;;6.47;;
1993;SDS011;998;49.906;10.908;2022-12-13T15:16:02;11.60;;;6.10;;
1993;SDS011;998;49.906;10.908;2022-12-13T15:18:34;11.47;;;6.93;;
1993;SDS011;998;49.906;10.908;2022-12-13T15:21:12;10.07;;;5.80;;
1993;SDS011;998;49.906;10.908;2022-12-13T15:23:46;10.10;;;4.97;;
1993;SDS011;998;49.906;10.908;2022-12-13T15:26:15;14.13;;;7.13;;
1993;SDS011;998;49.906;10.908;2022-12-13T15:28:46;13.30;;;6.33;;
1993;SDS011;998;49.906;10.908;2022-12-13T15:31:17;11.18;;;6.05;;
1993;SDS011;998;49.906;10.908;2022-12-13T15:33:45;14.43;;;6.53;;
1993;SDS011;998;49.906;10.908;2022-12-13T15:36:14;15.20;;;7.10;;
1993;SDS011;998;49.906;10.908;2022-12-13T15:38:46;14.10;;;6.33;;
1993;SDS011;998;49.906;10.908;2022-12-13T15:41:24;14.07;;;7.65;;
1993;SDS011;998;49.906;10.908;2022-12-13T15:43:54;13.73;;;5.67;;
1993;SDS011;998;49.906;10.908;2022-12-13T15:46:25;16.02;;;7.65;;
1993;SDS011;998;49.906;10.908;2022-12-13T15:48:55;13.88;;;6.50;;
1993;SDS011;998;49.906;10.908;2022-12-13T15:51:26;10.48;;;5.07;;
1993;SDS011;998;49.906;10.908;2022-12-13T15:53:59;12.43;;;6.10;;
1993;SDS011;998;49.906;10.908;2022-12-13T15:56:29;11.32;;;5.72;;
1993;SDS011;998;49.906;10.908;2022-12-13T15:58:58;9.18;;;5.45;;